Search for airport 
image banner adimage banner adimage banner ad
image banner ad

14PS - Hideaway

Located in Quarryville, United States

ICAO - 14PS, IATA -

Data provided by Airmate  

General information

Coordinates: N39°52'51" W76°7'1"
Elevation is 635 feet MSL.
 
View others Airports in Pennsylvania

Operational data

Special qualification required
Current time UTC:
Current local time:
Weather at : KMQS - Chester County G O Carlson ( 24 km )
METAR: KMQS 182315Z AUTO 00000KT 10SM CLR 23/07 A3028 RMK AO2
View NOTAMs / SUP AIP / TFR affecting this airport [VIEW]
Communications frequencies: [VIEW]

Runways:

RWY identifierQFULength (ft)Width (ft)SurfaceLDA (ft)
0275065GRASS
2075065GRASS

Airport contact information

Address: Quarryville United States

Satellite view of 14PS